Time;durP1;ratioP1;P1;durP2;ratioP2;P2;SDS_P1;SDS_P2;PMS_P1;PMS_P2;Temp;Humidity;BMP_temperature;BMP_pressure;BME280_temperature;BME280_humidity;BME280_pressure;Samples;Min_cycle;Max_cycle;Signal;HPM_P1;HPM_P2
2023/09/03 04:43:20;;;;;;;0.20;0.20;;;;;;;19.98;60.26;100223.19;5225811;27;20042;31
2023/09/03 04:45:56;;;;;;;0.00;0.00;;;;;;;20.06;60.26;100217.41;5265443;27;20070;-96
2023/09/03 04:58:47;;;;;;;1.45;0.82;;;;;;;20.87;60.30;100206.84;5269188;26;20058;-96
2023/09/03 05:01:42;;;;;;;;;;;;;;;;;;;;;
2023/09/03 05:19:48;;;;;;;0.00;0.00;;;;;;;21.67;60.35;100200.41;5109507;27;20091;-93
2023/09/03 05:22:14;;;;;;;0.00;0.00;;;;;;;21.62;60.35;100202.53;5195613;27;20074;-93
2023/09/03 05:24:41;;;;;;;0.10;0.10;;;;;;;21.83;60.36;100208.12;5217898;27;20170;-93
2023/09/03 05:27:07;;;;;;;0.10;0.10;;;;;;;21.88;60.37;100192.72;5259866;27;20120;-92
2023/09/03 05:29:32;;;;;;;0.00;0.00;;;;;;;21.86;60.36;100195.47;5259528;27;20092;-91
2023/09/03 05:31:58;;;;;;;0.20;0.08;;;;;;;21.88;60.36;100205.97;5259584;27;20125;-91
2023/09/03 05:34:24;;;;;;;0.05;0.05;;;;;;;21.74;60.36;100210.44;5259460;27;20117;-92
2023/09/03 05:36:50;;;;;;;0.00;0.00;;;;;;;21.75;60.36;100203.34;5268402;26;20107;-92
2023/09/03 05:39:15;;;;;;;0.00;0.00;;;;;;;21.66;60.35;100196.06;5307976;26;20068;-92
2023/09/03 05:41:41;;;;;;;0.10;0.05;;;;;;;21.51;60.35;100187.38;5326291;26;20063;-92
2023/09/03 05:44:09;;;;;;;0.05;0.05;;;;;;;21.44;60.34;100194.06;5326214;26;20064;-92
2023/09/03 05:46:34;;;;;;;0.75;0.75;;;;;;;21.70;60.35;100187.78;5326650;26;20048;-93
2023/09/03 05:49:00;;;;;;;0.00;0.00;;;;;;;21.66;60.35;100198.69;5326215;26;20334;-94
2023/09/03 05:51:25;;;;;;;0.00;0.00;;;;;;;21.84;60.36;100209.81;5307707;26;20060;-93
2023/09/03 05:53:51;;;;;;;0.10;0.10;;;;;;;21.89;60.37;100208.50;5307917;26;20064;-93
2023/09/03 05:56:16;;;;;;;0.00;0.00;;;;;;;21.75;60.36;100209.47;5307600;26;20067;-93
2023/09/03 05:58:42;;;;;;;0.00;0.00;;;;;;;21.76;60.36;100219.13;5322524;27;20071;-92
2023/09/03 06:01:08;;;;;;;0.00;0.00;;;;;;;21.75;60.36;100228.03;5285700;27;20107;-91
2023/09/03 06:03:34;;;;;;;0.22;0.22;;;;;;;21.70;60.35;100230.16;5286241;27;20052;-91
2023/09/03 06:06:07;;;;;;;1.37;0.32;;;;;;;21.72;60.36;100228.25;5285874;27;20359;-89
2023/09/03 06:08:33;;;;;;;4.05;0.75;;;;;;;21.86;60.36;100205.25;5285619;27;20629;-92
2023/09/03 06:10:59;;;;;;;0.35;0.20;;;;;;;21.88;60.37;100190.06;5285531;27;20069;-91
2023/09/03 06:13:28;;;;;;;0.20;0.20;;;;;;;21.93;60.36;100199.38;5286101;27;20345;-90
2023/09/03 06:15:54;;;;;;;0.08;0.08;;;;;;;22.10;60.38;100202.66;5285888;27;20053;-90
2023/09/03 06:18:19;;;;;;;0.00;0.00;;;;;;;22.03;60.38;100204.88;5285701;27;20307;-90
2023/09/03 06:20:45;;;;;;;0.40;0.10;;;;;;;22.07;60.37;100210.84;5285571;27;20097;-90
2023/09/03 06:23:15;;;;;;;0.03;0.03;;;;;;;22.10;60.38;100200.84;5285770;27;20067;-90
2023/09/03 06:25:44;;;;;;;1.48;0.43;;;;;;;22.21;60.38;100192.94;5304726;27;20056;-91
2023/09/03 06:28:09;;;;;;;0.45;0.22;;;;;;;22.36;60.39;100196.28;5285813;27;20025;-92
2023/09/03 06:30:35;;;;;;;0.08;0.08;;;;;;;22.48;60.39;100203.34;5285721;27;20107;-92
2023/09/03 06:33:00;;;;;;;0.00;0.00;;;;;;;22.50;60.40;100204.09;5285208;27;20061;-91
2023/09/03 06:35:26;;;;;;;0.20;0.20;;;;;;;22.72;60.40;100213.94;5267533;27;20048;-93
2023/09/03 06:37:52;;;;;;;0.00;0.00;;;;;;;22.72;60.42;100229.88;5285675;27;20108;-92
2023/09/03 06:40:17;;;;;;;0.15;0.15;;;;;;;22.77;60.41;100242.78;5285341;27;20074;-93
2023/09/03 06:42:43;;;;;;;0.00;0.00;;;;;;;22.64;60.40;100248.16;5285723;27;20423;-92
2023/09/03 06:45:08;;;;;;;0.37;0.37;;;;;;;22.60;60.40;100257.31;5287500;27;20040;-93
2023/09/03 09:34:20;;;;;;;5.22;0.32;;;;;;;27.04;60.64;100253.19;5338090;26;20432;-91
2023/09/03 09:41:06;;;;;;;0.00;0.00;;;;;;;27.10;60.63;100255.28;5222572;27;20081;-96
2023/09/03 09:51:08;;;;;;;0.15;0.15;;;;;;;27.09;60.64;100248.25;5257514;27;20135;-95
2023/09/03 15:55:40;;;;;;;0.03;0.03;;;;;;;25.28;60.55;100163.13;5271939;26;20132;-94
